sensor_id;sensor_type;location;lat;lon;timestamp;noise_LAeq;noise_LA_min;noise_LA_max;noise_LA01;noise_LA95
74292;Laerm;62687;55.738;37.516;2022-12-18T00:01:05;58.65;52.44;70.52;;
74292;Laerm;62687;55.738;37.516;2022-12-18T00:03:57;64.89;53.22;78.62;;
74292;Laerm;62687;55.738;37.516;2022-12-18T00:06:41;60.56;52.16;70.37;;
74292;Laerm;62687;55.738;37.516;2022-12-18T00:09:25;58.36;53.36;73.17;;
74292;Laerm;62687;55.738;37.516;2022-12-18T00:12:09;57.76;52.36;68.32;;
74292;Laerm;62687;55.738;37.516;2022-12-18T00:14:53;58.47;51.41;67.51;;
74292;Laerm;62687;55.738;37.516;2022-12-18T00:17:37;56.96;48.39;64.79;;
74292;Laerm;62687;55.738;37.516;2022-12-18T00:20:21;56.76;48.46;70.99;;
74292;Laerm;62687;55.738;37.516;2022-12-18T00:23:09;56.45;51.19;64.17;;
74292;Laerm;62687;55.738;37.516;2022-12-18T00:25:53;56.11;49.61;62.35;;
74292;Laerm;62687;55.738;37.516;2022-12-18T00:28:37;62.07;49.96;94.47;;
74292;Laerm;62687;55.738;37.516;2022-12-18T00:31:24;59.28;48.84;70.72;;
74292;Laerm;62687;55.738;37.516;2022-12-18T00:34:12;57.67;51.55;65.59;;
74292;Laerm;62687;55.738;37.516;2022-12-18T00:36:56;56.69;49.65;67.96;;
74292;Laerm;62687;55.738;37.516;2022-12-18T00:39:40;59.73;49.76;71.05;;
74292;Laerm;62687;55.738;37.516;2022-12-18T00:42:24;56.71;49.21;66.95;;
74292;Laerm;62687;55.738;37.516;2022-12-18T00:45:29;58.60;50.08;70.86;;
74292;Laerm;62687;55.738;37.516;2022-12-18T00:48:14;58.55;50.65;70.42;;
74292;Laerm;62687;55.738;37.516;2022-12-18T00:50:58;56.72;47.68;65.52;;
74292;Laerm;62687;55.738;37.516;2022-12-18T00:53:42;55.76;49.22;68.03;;
74292;Laerm;62687;55.738;37.516;2022-12-18T00:56:26;56.31;48.32;64.99;;
74292;Laerm;62687;55.738;37.516;2022-12-18T00:59:10;56.02;47.70;70.31;;
74292;Laerm;62687;55.738;37.516;2022-12-18T01:01:55;59.01;49.01;72.45;;
74292;Laerm;62687;55.738;37.516;2022-12-18T01:04:39;56.16;47.54;72.77;;
74292;Laerm;62687;55.738;37.516;2022-12-18T01:07:23;57.98;48.43;81.19;;
74292;Laerm;62687;55.738;37.516;2022-12-18T01:10:10;57.13;49.75;70.90;;
74292;Laerm;62687;55.738;37.516;2022-12-18T01:12:55;59.23;51.26;67.95;;
74292;Laerm;62687;55.738;37.516;2022-12-18T01:15:39;58.38;50.67;66.61;;
74292;Laerm;62687;55.738;37.516;2022-12-18T01:18:23;58.04;50.41;69.42;;
74292;Laerm;62687;55.738;37.516;2022-12-18T01:21:10;58.72;48.45;71.73;;
74292;Laerm;62687;55.738;37.516;2022-12-18T01:23:56;57.79;49.35;72.11;;
74292;Laerm;62687;55.738;37.516;2022-12-18T01:26:40;59.61;51.63;73.80;;
74292;Laerm;62687;55.738;37.516;2022-12-18T01:29:25;57.05;50.31;64.73;;
74292;Laerm;62687;55.738;37.516;2022-12-18T01:32:09;58.30;48.76;68.68;;
74292;Laerm;62687;55.738;37.516;2022-12-18T01:34:53;59.29;49.22;69.35;;
74292;Laerm;62687;55.738;37.516;2022-12-18T01:37:37;58.92;50.65;69.57;;
74292;Laerm;62687;55.738;37.516;2022-12-18T01:40:21;60.34;52.34;70.44;;
74292;Laerm;62687;55.738;37.516;2022-12-18T01:43:08;58.86;50.47;73.89;;
74292;Laerm;62687;55.738;37.516;2022-12-18T01:45:53;58.16;46.44;67.59;;
74292;Laerm;62687;55.738;37.516;2022-12-18T01:48:38;57.33;48.38;68.25;;
74292;Laerm;62687;55.738;37.516;2022-12-18T01:51:22;58.88;48.56;72.66;;
74292;Laerm;62687;55.738;37.516;2022-12-18T01:54:07;60.96;50.81;72.01;;
74292;Laerm;62687;55.738;37.516;2022-12-18T01:56:51;60.24;52.86;68.78;;
74292;Laerm;62687;55.738;37.516;2022-12-18T01:59:36;60.04;51.91;71.48;;
74292;Laerm;62687;55.738;37.516;2022-12-18T02:02:21;56.26;49.14;72.05;;
74292;Laerm;62687;55.738;37.516;2022-12-18T02:05:06;57.78;48.51;69.30;;
74292;Laerm;62687;55.738;37.516;2022-12-18T02:10:44;61.62;50.23;73.44;;
74292;Laerm;62687;55.738;37.516;2022-12-18T02:16:49;58.46;50.20;70.07;;
74292;Laerm;62687;55.738;37.516;2022-12-18T02:29:21;62.52;50.96;71.78;;
74292;Laerm;62687;55.738;37.516;2022-12-18T02:32:11;63.20;51.18;71.10;;
74292;Laerm;62687;55.738;37.516;2022-12-18T02:34:58;62.60;53.32;70.04;;
74292;Laerm;62687;55.738;37.516;2022-12-18T02:37:45;62.63;54.67;70.21;;
74292;Laerm;62687;55.738;37.516;2022-12-18T02:40:31;63.00;54.07;69.88;;
74292;Laerm;62687;55.738;37.516;2022-12-18T02:43:15;61.94;51.33;69.58;;
74292;Laerm;62687;55.738;37.516;2022-12-18T02:46:01;63.55;54.26;72.47;;
74292;Laerm;62687;55.738;37.516;2022-12-18T02:49:14;64.98;54.23;72.45;;
74292;Laerm;62687;55.738;37.516;2022-12-18T03:01:49;62.71;54.89;70.50;;
74292;Laerm;62687;55.738;37.516;2022-12-18T03:04:43;62.86;54.25;70.78;;
74292;Laerm;62687;55.738;37.516;2022-12-18T03:07:56;61.66;52.42;69.32;;
74292;Laerm;62687;55.738;37.516;2022-12-18T03:10:53;64.16;54.06;74.21;;
74292;Laerm;62687;55.738;37.516;2022-12-18T03:13:48;60.93;51.12;68.27;;
74292;Laerm;62687;55.738;37.516;2022-12-18T03:16:36;60.97;52.75;69.69;;
74292;Laerm;62687;55.738;37.516;2022-12-18T03:19:23;65.51;51.29;73.29;;
74292;Laerm;62687;55.738;37.516;2022-12-18T03:22:10;64.17;53.71;72.72;;
74292;Laerm;62687;55.738;37.516;2022-12-18T03:24:56;66.68;57.15;77.33;;
74292;Laerm;62687;55.738;37.516;2022-12-18T03:27:47;66.63;55.45;80.46;;
74292;Laerm;62687;55.738;37.516;2022-12-18T03:30:33;65.70;56.69;80.52;;
74292;Laerm;62687;55.738;37.516;2022-12-18T03:33:25;67.17;60.79;73.31;;
74292;Laerm;62687;55.738;37.516;2022-12-18T03:36:11;62.38;53.30;72.70;;
74292;Laerm;62687;55.738;37.516;2022-12-18T03:38:58;62.24;53.54;76.30;;
74292;Laerm;62687;55.738;37.516;2022-12-18T03:41:52;62.81;51.10;70.92;;
74292;Laerm;62687;55.738;37.516;2022-12-18T03:53:47;68.18;55.83;82.21;;
74292;Laerm;62687;55.738;37.516;2022-12-18T03:56:41;70.97;57.34;78.83;;
74292;Laerm;62687;55.738;37.516;2022-12-18T03:59:28;66.78;56.46;78.18;;
74292;Laerm;62687;55.738;37.516;2022-12-18T04:02:16;67.43;52.86;78.80;;
74292;Laerm;62687;55.738;37.516;2022-12-18T04:05:03;65.16;57.97;72.40;;
74292;Laerm;62687;55.738;37.516;2022-12-18T04:07:49;66.86;54.76;75.31;;
74292;Laerm;62687;55.738;37.516;2022-12-18T04:10:35;66.93;54.00;80.86;;
74292;Laerm;62687;55.738;37.516;2022-12-18T04:13:32;66.87;55.48;76.18;;
74292;Laerm;62687;55.738;37.516;2022-12-18T04:16:16;67.72;57.53;76.90;;
74292;Laerm;62687;55.738;37.516;2022-12-18T04:19:00;63.88;53.62;70.82;;
74292;Laerm;62687;55.738;37.516;2022-12-18T04:21:44;65.60;55.39;73.87;;
74292;Laerm;62687;55.738;37.516;2022-12-18T04:24:28;69.59;57.15;77.89;;
74292;Laerm;62687;55.738;37.516;2022-12-18T04:27:12;63.96;53.69;72.36;;
74292;Laerm;62687;55.738;37.516;2022-12-18T04:29:56;64.97;52.77;73.37;;
74292;Laerm;62687;55.738;37.516;2022-12-18T04:32:40;66.43;53.74;76.49;;
74292;Laerm;62687;55.738;37.516;2022-12-18T04:35:25;64.56;54.11;88.47;;
74292;Laerm;62687;55.738;37.516;2022-12-18T04:38:10;64.03;54.05;72.24;;
74292;Laerm;62687;55.738;37.516;2022-12-18T04:40:54;62.96;55.29;71.86;;
74292;Laerm;62687;55.738;37.516;2022-12-18T04:43:38;62.73;56.67;71.11;;
74292;Laerm;62687;55.738;37.516;2022-12-18T04:46:22;62.51;56.76;69.32;;
74292;Laerm;62687;55.738;37.516;2022-12-18T04:49:06;62.92;55.94;70.14;;
74292;Laerm;62687;55.738;37.516;2022-12-18T04:51:50;61.89;56.17;72.76;;
74292;Laerm;62687;55.738;37.516;2022-12-18T04:54:34;61.81;55.57;68.83;;
74292;Laerm;62687;55.738;37.516;2022-12-18T04:57:17;61.79;54.05;68.78;;
74292;Laerm;62687;55.738;37.516;2022-12-18T05:00:02;62.55;55.65;68.90;;
74292;Laerm;62687;55.738;37.516;2022-12-18T05:02:46;61.92;57.13;69.93;;
74292;Laerm;62687;55.738;37.516;2022-12-18T05:05:30;62.92;57.79;71.64;;
74292;Laerm;62687;55.738;37.516;2022-12-18T05:08:14;65.28;57.55;74.65;;
74292;Laerm;62687;55.738;37.516;2022-12-18T05:11:07;62.85;56.07;71.49;;
74292;Laerm;62687;55.738;37.516;2022-12-18T05:13:51;63.08;55.51;69.53;;
74292;Laerm;62687;55.738;37.516;2022-12-18T05:16:35;66.36;58.80;72.74;;
74292;Laerm;62687;55.738;37.516;2022-12-18T05:19:19;63.70;57.91;74.98;;
74292;Laerm;62687;55.738;37.516;2022-12-18T05:22:03;62.37;56.03;71.00;;
74292;Laerm;62687;55.738;37.516;2022-12-18T05:24:47;62.62;58.33;71.34;;
74292;Laerm;62687;55.738;37.516;2022-12-18T05:27:31;61.43;56.69;72.51;;
74292;Laerm;62687;55.738;37.516;2022-12-18T05:30:16;61.73;56.43;68.88;;
74292;Laerm;62687;55.738;37.516;2022-12-18T05:33:00;61.70;57.04;69.28;;
74292;Laerm;62687;55.738;37.516;2022-12-18T05:35:49;61.20;54.52;71.30;;
74292;Laerm;62687;55.738;37.516;2022-12-18T05:38:35;61.76;57.16;67.10;;
74292;Laerm;62687;55.738;37.516;2022-12-18T05:41:20;64.06;57.75;72.21;;
74292;Laerm;62687;55.738;37.516;2022-12-18T05:44:03;62.76;56.21;71.65;;
74292;Laerm;62687;55.738;37.516;2022-12-18T05:46:47;62.16;56.07;70.03;;
74292;Laerm;62687;55.738;37.516;2022-12-18T05:49:31;62.40;56.15;70.35;;
74292;Laerm;62687;55.738;37.516;2022-12-18T05:52:15;62.84;56.60;69.70;;
74292;Laerm;62687;55.738;37.516;2022-12-18T05:54:59;61.80;56.36;67.31;;
74292;Laerm;62687;55.738;37.516;2022-12-18T05:57:43;63.04;56.78;71.27;;
74292;Laerm;62687;55.738;37.516;2022-12-18T06:00:27;62.69;56.64;72.37;;
74292;Laerm;62687;55.738;37.516;2022-12-18T06:03:12;61.26;55.93;68.51;;
74292;Laerm;62687;55.738;37.516;2022-12-18T06:05:56;63.36;57.95;71.74;;
74292;Laerm;62687;55.738;37.516;2022-12-18T06:08:40;62.56;56.65;69.00;;
74292;Laerm;62687;55.738;37.516;2022-12-18T06:11:26;66.08;58.50;72.66;;
74292;Laerm;62687;55.738;37.516;2022-12-18T06:14:10;62.31;52.91;69.45;;
74292;Laerm;62687;55.738;37.516;2022-12-18T06:16:54;61.64;56.64;67.61;;
74292;Laerm;62687;55.738;37.516;2022-12-18T06:19:39;61.64;55.05;67.72;;
74292;Laerm;62687;55.738;37.516;2022-12-18T06:22:23;67.01;59.20;76.41;;
74292;Laerm;62687;55.738;37.516;2022-12-18T06:25:07;66.05;57.27;73.30;;
74292;Laerm;62687;55.738;37.516;2022-12-18T06:27:51;66.20;58.24;74.12;;
74292;Laerm;62687;55.738;37.516;2022-12-18T06:30:35;65.08;56.70;80.65;;
74292;Laerm;62687;55.738;37.516;2022-12-18T06:33:20;67.55;57.72;78.84;;
74292;Laerm;62687;55.738;37.516;2022-12-18T06:36:10;62.18;56.93;70.76;;
74292;Laerm;62687;55.738;37.516;2022-12-18T06:38:56;61.95;56.63;67.96;;
74292;Laerm;62687;55.738;37.516;2022-12-18T06:41:40;64.51;58.57;73.37;;
74292;Laerm;62687;55.738;37.516;2022-12-18T06:44:24;62.25;56.43;67.81;;
74292;Laerm;62687;55.738;37.516;2022-12-18T06:47:08;63.08;57.32;74.69;;
74292;Laerm;62687;55.738;37.516;2022-12-18T06:49:52;63.55;57.27;72.50;;
74292;Laerm;62687;55.738;37.516;2022-12-18T06:52:36;62.41;57.49;67.62;;
74292;Laerm;62687;55.738;37.516;2022-12-18T06:55:20;61.81;57.70;66.58;;
74292;Laerm;62687;55.738;37.516;2022-12-18T06:58:04;62.66;55.56;72.97;;
74292;Laerm;62687;55.738;37.516;2022-12-18T07:00:48;66.41;56.67;78.68;;
74292;Laerm;62687;55.738;37.516;2022-12-18T07:03:32;66.32;57.47;77.00;;
74292;Laerm;62687;55.738;37.516;2022-12-18T07:06:19;62.65;56.51;69.54;;
74292;Laerm;62687;55.738;37.516;2022-12-18T07:09:03;61.69;56.05;69.32;;
74292;Laerm;62687;55.738;37.516;2022-12-18T07:11:47;62.70;58.07;68.15;;
74292;Laerm;62687;55.738;37.516;2022-12-18T07:14:31;61.90;56.62;67.55;;
74292;Laerm;62687;55.738;37.516;2022-12-18T07:17:15;62.90;58.09;68.13;;
74292;Laerm;62687;55.738;37.516;2022-12-18T07:19:59;61.53;57.26;66.75;;
74292;Laerm;62687;55.738;37.516;2022-12-18T07:22:43;61.57;56.15;68.07;;
74292;Laerm;62687;55.738;37.516;2022-12-18T07:25:27;64.89;58.14;74.62;;
74292;Laerm;62687;55.738;37.516;2022-12-18T07:28:11;67.34;57.46;77.27;;
74292;Laerm;62687;55.738;37.516;2022-12-18T07:30:56;62.18;57.27;79.93;;
74292;Laerm;62687;55.738;37.516;2022-12-18T07:33:40;61.99;57.79;67.32;;
74292;Laerm;62687;55.738;37.516;2022-12-18T07:36:24;62.01;57.50;68.91;;
74292;Laerm;62687;55.738;37.516;2022-12-18T07:39:08;62.36;57.97;68.37;;
74292;Laerm;62687;55.738;37.516;2022-12-18T07:41:52;62.26;58.54;66.41;;
74292;Laerm;62687;55.738;37.516;2022-12-18T07:44:55;64.92;57.66;74.68;;
74292;Laerm;62687;55.738;37.516;2022-12-18T07:47:40;68.34;60.19;81.27;;
74292;Laerm;62687;55.738;37.516;2022-12-18T07:50:25;64.03;58.65;71.61;;
74292;Laerm;62687;55.738;37.516;2022-12-18T07:53:09;63.46;57.99;71.28;;
74292;Laerm;62687;55.738;37.516;2022-12-18T07:56:00;63.75;58.59;74.41;;
74292;Laerm;62687;55.738;37.516;2022-12-18T07:58:44;62.90;57.91;68.23;;
74292;Laerm;62687;55.738;37.516;2022-12-18T08:01:28;62.51;56.88;69.45;;
74292;Laerm;62687;55.738;37.516;2022-12-18T08:04:12;63.34;57.17;69.76;;
74292;Laerm;62687;55.738;37.516;2022-12-18T08:06:56;64.14;58.10;83.97;;
74292;Laerm;62687;55.738;37.516;2022-12-18T08:09:40;64.31;58.70;82.95;;
74292;Laerm;62687;55.738;37.516;2022-12-18T08:12:25;62.77;56.68;71.75;;
74292;Laerm;62687;55.738;37.516;2022-12-18T08:15:09;63.79;58.87;74.42;;
74292;Laerm;62687;55.738;37.516;2022-12-18T08:17:56;63.17;58.32;75.06;;
74292;Laerm;62687;55.738;37.516;2022-12-18T08:20:43;63.80;57.43;79.05;;
74292;Laerm;62687;55.738;37.516;2022-12-18T08:23:27;62.76;57.18;69.20;;
74292;Laerm;62687;55.738;37.516;2022-12-18T08:26:11;62.42;57.99;67.63;;
74292;Laerm;62687;55.738;37.516;2022-12-18T08:28:56;62.44;57.69;67.22;;
74292;Laerm;62687;55.738;37.516;2022-12-18T08:31:41;62.91;58.73;71.25;;
74292;Laerm;62687;55.738;37.516;2022-12-18T08:34:25;62.29;58.00;68.48;;
74292;Laerm;62687;55.738;37.516;2022-12-18T08:37:09;62.43;56.75;67.44;;
74292;Laerm;62687;55.738;37.516;2022-12-18T08:39:53;62.75;55.88;67.85;;
74292;Laerm;62687;55.738;37.516;2022-12-18T08:42:38;62.09;56.73;72.92;;
74292;Laerm;62687;55.738;37.516;2022-12-18T08:45:40;62.07;54.46;68.66;;
74292;Laerm;62687;55.738;37.516;2022-12-18T08:48:24;62.52;56.05;73.44;;
74292;Laerm;62687;55.738;37.516;2022-12-18T08:51:08;63.82;57.47;72.09;;
74292;Laerm;62687;55.738;37.516;2022-12-18T08:53:56;64.20;59.21;69.72;;
74292;Laerm;62687;55.738;37.516;2022-12-18T08:56:40;66.19;57.50;73.32;;
74292;Laerm;62687;55.738;37.516;2022-12-18T08:59:24;67.91;60.20;80.87;;
74292;Laerm;62687;55.738;37.516;2022-12-18T09:02:10;67.60;58.04;75.46;;
74292;Laerm;62687;55.738;37.516;2022-12-18T09:04:55;67.71;58.40;78.27;;
74292;Laerm;62687;55.738;37.516;2022-12-18T09:07:39;67.18;57.50;73.97;;
74292;Laerm;62687;55.738;37.516;2022-12-18T09:10:23;67.02;60.69;73.67;;
74292;Laerm;62687;55.738;37.516;2022-12-18T09:13:07;67.69;62.07;78.77;;
74292;Laerm;62687;55.738;37.516;2022-12-18T09:15:53;67.88;62.40;74.19;;
74292;Laerm;62687;55.738;37.516;2022-12-18T09:18:43;67.41;62.52;73.17;;
74292;Laerm;62687;55.738;37.516;2022-12-18T09:21:31;67.55;63.45;73.06;;
74292;Laerm;62687;55.738;37.516;2022-12-18T09:24:16;67.43;61.66;75.24;;
74292;Laerm;62687;55.738;37.516;2022-12-18T09:27:00;67.45;61.25;73.61;;
74292;Laerm;62687;55.738;37.516;2022-12-18T09:29:44;66.97;61.74;72.86;;
74292;Laerm;62687;55.738;37.516;2022-12-18T09:32:29;67.16;62.03;73.45;;
74292;Laerm;62687;55.738;37.516;2022-12-18T09:35:13;67.48;61.53;78.50;;
74292;Laerm;62687;55.738;37.516;2022-12-18T09:37:58;66.69;62.16;71.60;;
74292;Laerm;62687;55.738;37.516;2022-12-18T09:40:51;67.25;61.75;72.94;;
74292;Laerm;62687;55.738;37.516;2022-12-18T09:46:29;68.26;63.75;78.20;;
74292;Laerm;62687;55.738;37.516;2022-12-18T09:49:18;69.53;61.82;78.65;;
74292;Laerm;62687;55.738;37.516;2022-12-18T09:58:39;68.41;61.44;77.70;;
74292;Laerm;62687;55.738;37.516;2022-12-18T10:01:26;67.87;60.75;77.24;;
74292;Laerm;62687;55.738;37.516;2022-12-18T10:04:11;66.05;61.78;72.95;;
74292;Laerm;62687;55.738;37.516;2022-12-18T10:07:09;66.23;59.85;75.58;;
74292;Laerm;62687;55.738;37.516;2022-12-18T10:28:24;65.86;61.02;72.34;;
74292;Laerm;62687;55.738;37.516;2022-12-18T10:31:27;66.71;61.62;74.69;;
74292;Laerm;62687;55.738;37.516;2022-12-18T10:34:12;66.00;61.38;78.79;;
74292;Laerm;62687;55.738;37.516;2022-12-18T10:36:56;66.60;60.85;88.37;;
74292;Laerm;62687;55.738;37.516;2022-12-18T10:39:41;66.44;62.38;71.20;;
74292;Laerm;62687;55.738;37.516;2022-12-18T10:42:24;66.24;62.52;72.80;;
74292;Laerm;62687;55.738;37.516;2022-12-18T10:45:12;67.21;61.61;72.40;;
74292;Laerm;62687;55.738;37.516;2022-12-18T10:47:58;66.78;60.74;72.05;;
74292;Laerm;62687;55.738;37.516;2022-12-18T10:50:47;66.83;62.08;73.18;;
74292;Laerm;62687;55.738;37.516;2022-12-18T10:53:34;66.78;60.13;73.62;;
74292;Laerm;62687;55.738;37.516;2022-12-18T10:56:20;67.26;61.36;78.62;;
74292;Laerm;62687;55.738;37.516;2022-12-18T10:59:05;68.13;63.56;72.68;;
74292;Laerm;62687;55.738;37.516;2022-12-18T11:01:57;66.79;61.79;71.04;;
74292;Laerm;62687;55.738;37.516;2022-12-18T11:04:50;66.90;61.45;74.24;;
74292;Laerm;62687;55.738;37.516;2022-12-18T11:07:56;66.36;61.49;71.26;;
74292;Laerm;62687;55.738;37.516;2022-12-18T11:10:46;67.57;62.85;79.88;;
74292;Laerm;62687;55.738;37.516;2022-12-18T11:13:31;65.35;60.87;70.92;;
74292;Laerm;62687;55.738;37.516;2022-12-18T11:16:19;65.73;60.31;71.78;;
74292;Laerm;62687;55.738;37.516;2022-12-18T11:19:21;65.57;59.18;70.80;;
74292;Laerm;62687;55.738;37.516;2022-12-18T11:22:25;68.15;61.46;80.60;;
74292;Laerm;62687;55.738;37.516;2022-12-18T11:27:58;65.49;59.37;70.12;;
74292;Laerm;62687;55.738;37.516;2022-12-18T11:30:42;65.34;60.69;70.34;;
74292;Laerm;62687;55.738;37.516;2022-12-18T11:33:26;65.38;59.58;70.29;;
74292;Laerm;62687;55.738;37.516;2022-12-18T11:36:11;69.33;60.52;79.23;;
74292;Laerm;62687;55.738;37.516;2022-12-18T11:38:59;65.36;60.85;70.33;;
74292;Laerm;62687;55.738;37.516;2022-12-18T11:47:58;66.27;61.59;71.53;;
74292;Laerm;62687;55.738;37.516;2022-12-18T11:50:52;65.71;61.15;70.73;;
74292;Laerm;62687;55.738;37.516;2022-12-18T11:53:36;65.89;61.95;72.08;;
74292;Laerm;62687;55.738;37.516;2022-12-18T11:56:39;66.29;59.98;71.17;;
74292;Laerm;62687;55.738;37.516;2022-12-18T12:05:55;66.18;60.46;70.62;;
74292;Laerm;62687;55.738;37.516;2022-12-18T12:30:39;66.25;60.47;71.21;;
74292;Laerm;62687;55.738;37.516;2022-12-18T12:33:49;66.35;61.09;74.94;;
74292;Laerm;62687;55.738;37.516;2022-12-18T12:37:38;65.48;60.05;70.57;;
74292;Laerm;62687;55.738;37.516;2022-12-18T12:40:02;65.66;61.15;72.64;;
74292;Laerm;62687;55.738;37.516;2022-12-18T12:43:38;66.06;61.40;70.76;;
74292;Laerm;62687;55.738;37.516;2022-12-18T12:46:25;65.81;60.98;71.21;;
74292;Laerm;62687;55.738;37.516;2022-12-18T12:49:15;65.46;59.21;69.93;;
74292;Laerm;62687;55.738;37.516;2022-12-18T12:52:44;65.69;59.90;72.35;;
74292;Laerm;62687;55.738;37.516;2022-12-18T12:55:29;65.79;61.04;72.95;;
74292;Laerm;62687;55.738;37.516;2022-12-18T12:58:29;65.82;61.60;69.81;;
74292;Laerm;62687;55.738;37.516;2022-12-18T13:01:39;65.61;60.47;78.78;;
74292;Laerm;62687;55.738;37.516;2022-12-18T13:07:17;65.07;60.50;76.37;;
74292;Laerm;62687;55.738;37.516;2022-12-18T13:13:12;64.70;59.28;70.42;;
74292;Laerm;62687;55.738;37.516;2022-12-18T13:16:07;65.44;60.86;72.34;;
74292;Laerm;62687;55.738;37.516;2022-12-18T13:18:56;64.77;59.99;71.24;;
74292;Laerm;62687;55.738;37.516;2022-12-18T13:21:41;65.44;61.57;72.79;;
74292;Laerm;62687;55.738;37.516;2022-12-18T13:24:28;64.36;59.52;68.98;;
74292;Laerm;62687;55.738;37.516;2022-12-18T13:44:48;66.43;60.72;73.03;;
74292;Laerm;62687;55.738;37.516;2022-12-18T13:47:37;65.28;61.01;74.89;;
74292;Laerm;62687;55.738;37.516;2022-12-18T13:50:25;64.71;60.55;69.70;;
74292;Laerm;62687;55.738;37.516;2022-12-18T13:53:53;66.23;60.32;75.27;;
74292;Laerm;62687;55.738;37.516;2022-12-18T13:56:44;64.80;60.07;71.92;;
74292;Laerm;62687;55.738;37.516;2022-12-18T13:59:39;66.52;59.32;81.26;;
74292;Laerm;62687;55.738;37.516;2022-12-18T14:02:27;65.25;59.83;74.28;;
74292;Laerm;62687;55.738;37.516;2022-12-18T14:05:26;64.54;60.19;72.86;;
74292;Laerm;62687;55.738;37.516;2022-12-18T14:08:13;65.69;60.64;74.66;;
74292;Laerm;62687;55.738;37.516;2022-12-18T14:10:58;64.26;60.01;70.16;;
74292;Laerm;62687;55.738;37.516;2022-12-18T14:13:42;64.97;59.81;73.56;;
74292;Laerm;62687;55.738;37.516;2022-12-18T14:16:27;64.80;57.89;82.37;;
74292;Laerm;62687;55.738;37.516;2022-12-18T14:19:17;65.39;59.69;87.71;;
74292;Laerm;62687;55.738;37.516;2022-12-18T14:22:02;67.82;59.50;88.03;;
74292;Laerm;62687;55.738;37.516;2022-12-18T14:24:47;66.66;60.15;81.60;;
74292;Laerm;62687;55.738;37.516;2022-12-18T14:27:46;64.62;60.65;69.82;;
74292;Laerm;62687;55.738;37.516;2022-12-18T14:30:42;64.00;56.67;70.46;;
74292;Laerm;62687;55.738;37.516;2022-12-18T14:33:28;63.70;58.96;74.93;;
74292;Laerm;62687;55.738;37.516;2022-12-18T14:36:16;66.46;60.15;74.07;;
74292;Laerm;62687;55.738;37.516;2022-12-18T14:39:01;64.97;59.79;77.79;;
74292;Laerm;62687;55.738;37.516;2022-12-18T14:41:45;64.94;60.59;71.42;;
74292;Laerm;62687;55.738;37.516;2022-12-18T14:44:29;67.02;60.57;75.58;;
74292;Laerm;62687;55.738;37.516;2022-12-18T14:47:15;68.22;61.33;76.94;;
74292;Laerm;62687;55.738;37.516;2022-12-18T14:49:59;65.58;60.38;72.67;;
74292;Laerm;62687;55.738;37.516;2022-12-18T14:52:43;64.44;59.76;70.38;;
74292;Laerm;62687;55.738;37.516;2022-12-18T14:55:28;66.04;59.17;75.70;;
74292;Laerm;62687;55.738;37.516;2022-12-18T14:58:15;68.85;60.93;88.26;;
74292;Laerm;62687;55.738;37.516;2022-12-18T15:01:00;65.62;59.74;71.46;;
74292;Laerm;62687;55.738;37.516;2022-12-18T15:03:44;66.45;61.62;72.49;;
74292;Laerm;62687;55.738;37.516;2022-12-18T15:06:34;66.84;61.57;75.48;;
74292;Laerm;62687;55.738;37.516;2022-12-18T15:09:24;65.61;59.63;72.45;;
74292;Laerm;62687;55.738;37.516;2022-12-18T15:18:41;66.62;59.58;77.17;;
74292;Laerm;62687;55.738;37.516;2022-12-18T15:21:26;65.99;59.76;71.95;;
74292;Laerm;62687;55.738;37.516;2022-12-18T15:24:22;64.66;57.20;70.36;;
74292;Laerm;62687;55.738;37.516;2022-12-18T15:27:23;63.31;56.78;69.05;;
74292;Laerm;62687;55.738;37.516;2022-12-18T15:33:20;66.45;61.57;75.84;;
74292;Laerm;62687;55.738;37.516;2022-12-18T15:36:14;67.55;63.10;75.74;;
74292;Laerm;62687;55.738;37.516;2022-12-18T15:38:58;67.73;63.78;71.89;;
74292;Laerm;62687;55.738;37.516;2022-12-18T15:41:42;67.39;60.95;74.44;;
74292;Laerm;62687;55.738;37.516;2022-12-18T15:44:47;69.33;63.20;75.53;;
74292;Laerm;62687;55.738;37.516;2022-12-18T15:47:32;69.69;62.28;81.91;;
74292;Laerm;62687;55.738;37.516;2022-12-18T15:50:18;68.83;61.70;74.71;;
74292;Laerm;62687;55.738;37.516;2022-12-18T15:53:02;68.50;62.54;73.47;;
74292;Laerm;62687;55.738;37.516;2022-12-18T15:55:46;68.75;62.74;73.75;;
74292;Laerm;62687;55.738;37.516;2022-12-18T15:58:49;68.34;63.48;72.51;;
74292;Laerm;62687;55.738;37.516;2022-12-18T16:01:33;68.55;61.75;76.47;;
74292;Laerm;62687;55.738;37.516;2022-12-18T16:04:18;69.29;63.83;73.70;;
74292;Laerm;62687;55.738;37.516;2022-12-18T16:07:04;68.80;63.35;83.84;;
74292;Laerm;62687;55.738;37.516;2022-12-18T16:09:48;69.57;64.80;79.84;;
74292;Laerm;62687;55.738;37.516;2022-12-18T16:12:32;68.64;62.87;73.68;;
74292;Laerm;62687;55.738;37.516;2022-12-18T16:15:16;69.24;64.48;77.65;;
74292;Laerm;62687;55.738;37.516;2022-12-18T16:18:00;68.23;62.75;74.69;;
74292;Laerm;62687;55.738;37.516;2022-12-18T16:20:44;68.18;64.06;72.95;;
74292;Laerm;62687;55.738;37.516;2022-12-18T16:23:28;68.23;62.80;74.71;;
74292;Laerm;62687;55.738;37.516;2022-12-18T16:26:12;67.79;59.47;81.18;;
74292;Laerm;62687;55.738;37.516;2022-12-18T16:28:56;68.25;63.18;74.76;;
74292;Laerm;62687;55.738;37.516;2022-12-18T16:31:40;67.64;63.34;73.07;;
74292;Laerm;62687;55.738;37.516;2022-12-18T16:34:28;68.60;63.28;73.43;;
74292;Laerm;62687;55.738;37.516;2022-12-18T16:37:14;69.16;63.34;73.92;;
74292;Laerm;62687;55.738;37.516;2022-12-18T16:39:59;68.31;64.07;73.72;;
74292;Laerm;62687;55.738;37.516;2022-12-18T16:42:44;68.34;63.46;73.77;;
74292;Laerm;62687;55.738;37.516;2022-12-18T16:45:28;68.80;63.41;75.85;;
74292;Laerm;62687;55.738;37.516;2022-12-18T16:48:16;68.92;63.39;79.68;;
74292;Laerm;62687;55.738;37.516;2022-12-18T16:51:04;68.83;63.95;78.06;;
74292;Laerm;62687;55.738;37.516;2022-12-18T16:53:48;68.34;62.86;76.22;;
74292;Laerm;62687;55.738;37.516;2022-12-18T16:56:32;69.34;64.76;76.26;;
74292;Laerm;62687;55.738;37.516;2022-12-18T16:59:17;68.80;62.61;82.97;;
74292;Laerm;62687;55.738;37.516;2022-12-18T17:02:04;68.54;63.62;77.58;;
74292;Laerm;62687;55.738;37.516;2022-12-18T17:04:49;68.77;64.51;74.58;;
74292;Laerm;62687;55.738;37.516;2022-12-18T17:07:33;68.44;64.77;77.22;;
74292;Laerm;62687;55.738;37.516;2022-12-18T17:10:18;68.58;64.25;74.77;;
74292;Laerm;62687;55.738;37.516;2022-12-18T17:13:01;69.23;63.80;77.84;;
74292;Laerm;62687;55.738;37.516;2022-12-18T17:15:46;68.94;64.15;73.88;;
74292;Laerm;62687;55.738;37.516;2022-12-18T17:18:30;68.79;63.35;83.35;;
74292;Laerm;62687;55.738;37.516;2022-12-18T17:21:10;68.45;64.03;73.04;;
74292;Laerm;62687;55.738;37.516;2022-12-18T17:23:59;68.24;62.83;72.97;;
74292;Laerm;62687;55.738;37.516;2022-12-18T17:26:44;68.74;64.03;74.05;;
74292;Laerm;62687;55.738;37.516;2022-12-18T17:29:28;68.29;63.97;77.51;;
74292;Laerm;62687;55.738;37.516;2022-12-18T17:32:13;68.15;62.69;74.41;;
74292;Laerm;62687;55.738;37.516;2022-12-18T17:34:57;68.88;63.67;79.39;;